sensor_id;sensor_type;location;lat;lon;timestamp;pressure;altitude;pressure_sealevel;temperature;humidity
79705;BME280;69940;53.120;8.764;2023-06-19T00:01:39;101138.00;;;23.26;48.84
79705;BME280;69940;53.120;8.764;2023-06-19T00:04:10;101138.00;;;23.26;48.76
79705;BME280;69940;53.120;8.764;2023-06-19T00:06:39;101137.00;;;23.26;48.72
79705;BME280;69940;53.120;8.764;2023-06-19T00:09:09;101137.00;;;23.26;48.75
79705;BME280;69940;53.120;8.764;2023-06-19T00:11:39;101134.00;;;23.26;48.78
79705;BME280;69940;53.120;8.764;2023-06-19T00:14:09;101131.00;;;23.25;48.87
79705;BME280;69940;53.120;8.764;2023-06-19T00:16:41;101127.00;;;23.24;48.84
79705;BME280;69940;53.120;8.764;2023-06-19T00:19:09;101123.00;;;23.23;48.93
79705;BME280;69940;53.120;8.764;2023-06-19T00:21:39;101117.00;;;23.22;49.05
79705;BME280;69940;53.120;8.764;2023-06-19T00:24:09;101113.00;;;23.21;49.09
79705;BME280;69940;53.120;8.764;2023-06-19T00:26:39;101110.00;;;23.19;49.14
79705;BME280;69940;53.120;8.764;2023-06-19T00:29:09;101109.00;;;23.18;49.19
79705;BME280;69940;53.120;8.764;2023-06-19T00:31:39;101109.00;;;23.16;49.36
79705;BME280;69940;53.120;8.764;2023-06-19T00:34:09;101110.00;;;23.13;49.56
79705;BME280;69940;53.120;8.764;2023-06-19T00:36:41;101110.00;;;23.11;49.74
79705;BME280;69940;53.120;8.764;2023-06-19T00:39:09;101110.00;;;23.09;49.83
79705;BME280;69940;53.120;8.764;2023-06-19T00:41:40;101109.00;;;23.07;49.68
79705;BME280;69940;53.120;8.764;2023-06-19T00:44:09;101106.00;;;23.05;49.51
79705;BME280;69940;53.120;8.764;2023-06-19T00:46:40;101103.00;;;23.03;49.37
79705;BME280;69940;53.120;8.764;2023-06-19T00:49:09;101101.00;;;23.02;49.27
79705;BME280;69940;53.120;8.764;2023-06-19T00:51:39;101098.00;;;23.00;49.26
79705;BME280;69940;53.120;8.764;2023-06-19T00:54:09;101096.00;;;22.99;49.23
79705;BME280;69940;53.120;8.764;2023-06-19T00:56:42;101095.00;;;22.98;49.16
79705;BME280;69940;53.120;8.764;2023-06-19T00:59:17;101093.00;;;22.97;49.17
79705;BME280;69940;53.120;8.764;2023-06-19T01:01:39;101090.00;;;22.96;49.19
79705;BME280;69940;53.120;8.764;2023-06-19T01:04:09;101086.00;;;22.96;49.16
79705;BME280;69940;53.120;8.764;2023-06-19T01:06:57;101081.00;;;22.95;49.11
79705;BME280;69940;53.120;8.764;2023-06-19T01:09:11;101076.00;;;22.94;49.08
79705;BME280;69940;53.120;8.764;2023-06-19T01:11:48;101070.00;;;22.93;48.97
79705;BME280;69940;53.120;8.764;2023-06-19T01:14:14;101066.00;;;22.92;48.98
79705;BME280;69940;53.120;8.764;2023-06-19T01:16:39;101061.00;;;22.91;48.89
79705;BME280;69940;53.120;8.764;2023-06-19T01:19:10;101059.00;;;22.90;48.84
79705;BME280;69940;53.120;8.764;2023-06-19T01:21:39;101057.00;;;22.90;48.84
79705;BME280;69940;53.120;8.764;2023-06-19T01:24:09;101055.00;;;22.89;48.94
79705;BME280;69940;53.120;8.764;2023-06-19T01:26:39;101054.00;;;22.88;48.93
79705;BME280;69940;53.120;8.764;2023-06-19T01:29:10;101054.00;;;22.87;48.92
79705;BME280;69940;53.120;8.764;2023-06-19T01:31:51;101055.00;;;22.87;49.00
79705;BME280;69940;53.120;8.764;2023-06-19T01:34:10;101055.00;;;22.86;49.04
79705;BME280;69940;53.120;8.764;2023-06-19T01:36:40;101055.00;;;22.85;49.13
79705;BME280;69940;53.120;8.764;2023-06-19T01:39:11;101056.00;;;22.84;49.23
79705;BME280;69940;53.120;8.764;2023-06-19T01:41:40;101056.00;;;22.83;49.21
79705;BME280;69940;53.120;8.764;2023-06-19T01:44:09;101054.00;;;22.83;49.27
79705;BME280;69940;53.120;8.764;2023-06-19T01:46:39;101050.00;;;22.82;49.20
79705;BME280;69940;53.120;8.764;2023-06-19T01:49:11;101046.00;;;22.81;49.20
79705;BME280;69940;53.120;8.764;2023-06-19T01:51:39;101044.00;;;22.81;49.18
79705;BME280;69940;53.120;8.764;2023-06-19T01:54:09;101042.00;;;22.80;49.10
79705;BME280;69940;53.120;8.764;2023-06-19T01:56:39;101039.00;;;22.80;49.19
79705;BME280;69940;53.120;8.764;2023-06-19T01:59:09;101035.00;;;22.79;49.18
79705;BME280;69940;53.120;8.764;2023-06-19T02:01:39;101031.00;;;22.79;49.10
79705;BME280;69940;53.120;8.764;2023-06-19T02:04:09;101027.00;;;22.78;49.08
79705;BME280;69940;53.120;8.764;2023-06-19T02:06:39;101024.00;;;22.77;49.12
79705;BME280;69940;53.120;8.764;2023-06-19T02:09:09;101020.00;;;22.76;49.14
79705;BME280;69940;53.120;8.764;2023-06-19T02:11:39;101015.00;;;22.75;49.18
79705;BME280;69940;53.120;8.764;2023-06-19T02:14:09;101014.00;;;22.75;49.24
79705;BME280;69940;53.120;8.764;2023-06-19T02:16:39;101013.00;;;22.74;49.40
79705;BME280;69940;53.120;8.764;2023-06-19T02:19:12;101012.00;;;22.73;49.36
79705;BME280;69940;53.120;8.764;2023-06-19T02:21:39;101010.00;;;22.72;49.30
79705;BME280;69940;53.120;8.764;2023-06-19T02:24:09;101006.00;;;22.72;49.01
79705;BME280;69940;53.120;8.764;2023-06-19T02:26:39;101004.00;;;22.72;48.87
79705;BME280;69940;53.120;8.764;2023-06-19T02:29:09;101003.00;;;22.72;48.79
79705;BME280;69940;53.120;8.764;2023-06-19T02:31:39;101002.00;;;22.71;48.80
79705;BME280;69940;53.120;8.764;2023-06-19T02:34:09;101001.00;;;22.71;48.78
79705;BME280;69940;53.120;8.764;2023-06-19T02:36:39;101000.00;;;22.71;48.77
79705;BME280;69940;53.120;8.764;2023-06-19T02:39:09;100999.00;;;22.71;48.79
79705;BME280;69940;53.120;8.764;2023-06-19T02:41:39;100999.00;;;22.71;49.08
79705;BME280;69940;53.120;8.764;2023-06-19T02:44:09;100999.00;;;22.69;49.31
79705;BME280;69940;53.120;8.764;2023-06-19T02:46:39;100999.00;;;22.68;49.33
79705;BME280;69940;53.120;8.764;2023-06-19T02:49:09;100998.00;;;22.65;49.31
79705;BME280;69940;53.120;8.764;2023-06-19T02:51:39;100997.00;;;22.64;49.23
79705;BME280;69940;53.120;8.764;2023-06-19T02:54:09;100995.00;;;22.63;48.72
79705;BME280;69940;53.120;8.764;2023-06-19T02:56:39;100993.00;;;22.64;48.43
79705;BME280;69940;53.120;8.764;2023-06-19T02:59:09;100990.00;;;22.64;48.21
79705;BME280;69940;53.120;8.764;2023-06-19T03:01:39;100988.00;;;22.66;48.06
79705;BME280;69940;53.120;8.764;2023-06-19T03:04:09;100986.00;;;22.67;47.93
79705;BME280;69940;53.120;8.764;2023-06-19T03:06:40;100984.00;;;22.69;47.76
79705;BME280;69940;53.120;8.764;2023-06-19T03:09:13;100984.00;;;22.71;47.91
79705;BME280;69940;53.120;8.764;2023-06-19T03:11:40;100983.00;;;22.72;47.88
79705;BME280;69940;53.120;8.764;2023-06-19T03:14:09;100984.00;;;22.73;47.73
79705;BME280;69940;53.120;8.764;2023-06-19T03:16:39;100985.00;;;22.75;47.77
79705;BME280;69940;53.120;8.764;2023-06-19T03:19:09;100986.00;;;22.76;47.82
79705;BME280;69940;53.120;8.764;2023-06-19T03:21:39;100985.00;;;22.77;47.74
79705;BME280;69940;53.120;8.764;2023-06-19T03:24:09;100984.00;;;22.78;47.78
79705;BME280;69940;53.120;8.764;2023-06-19T03:26:39;100982.00;;;22.79;47.96
79705;BME280;69940;53.120;8.764;2023-06-19T03:29:09;100983.00;;;22.80;48.02
79705;BME280;69940;53.120;8.764;2023-06-19T03:31:40;100984.00;;;22.80;48.20
79705;BME280;69940;53.120;8.764;2023-06-19T03:34:09;100986.00;;;22.80;48.34
79705;BME280;69940;53.120;8.764;2023-06-19T03:36:39;100989.00;;;22.80;48.63
79705;BME280;69940;53.120;8.764;2023-06-19T03:39:09;100991.00;;;22.79;48.66
79705;BME280;69940;53.120;8.764;2023-06-19T03:41:39;100994.00;;;22.79;48.65
79705;BME280;69940;53.120;8.764;2023-06-19T03:44:09;100999.00;;;22.78;48.49
79705;BME280;69940;53.120;8.764;2023-06-19T03:46:39;101002.00;;;22.78;48.31
79705;BME280;69940;53.120;8.764;2023-06-19T03:49:10;101003.00;;;22.78;48.41
79705;BME280;69940;53.120;8.764;2023-06-19T03:51:39;101003.00;;;22.79;48.41
79705;BME280;69940;53.120;8.764;2023-06-19T03:54:09;101004.00;;;22.79;48.41
79705;BME280;69940;53.120;8.764;2023-06-19T03:56:39;101004.00;;;22.80;48.47
79705;BME280;69940;53.120;8.764;2023-06-19T03:59:09;101004.00;;;22.81;48.54
79705;BME280;69940;53.120;8.764;2023-06-19T04:01:39;101003.00;;;22.82;48.44
79705;BME280;69940;53.120;8.764;2023-06-19T04:04:09;101003.00;;;22.82;48.52
79705;BME280;69940;53.120;8.764;2023-06-19T04:06:39;101004.00;;;22.82;48.64
79705;BME280;69940;53.120;8.764;2023-06-19T04:09:09;101004.00;;;22.82;48.67
79705;BME280;69940;53.120;8.764;2023-06-19T04:11:39;101006.00;;;22.81;48.79
79705;BME280;69940;53.120;8.764;2023-06-19T04:14:09;101007.00;;;22.80;48.82
79705;BME280;69940;53.120;8.764;2023-06-19T04:16:39;101008.00;;;22.79;48.95
79705;BME280;69940;53.120;8.764;2023-06-19T04:19:09;101009.00;;;22.79;49.10
79705;BME280;69940;53.120;8.764;2023-06-19T04:21:39;101010.00;;;22.78;49.26
79705;BME280;69940;53.120;8.764;2023-06-19T04:24:09;101010.00;;;22.77;49.74
79705;BME280;69940;53.120;8.764;2023-06-19T04:26:39;101011.00;;;22.76;50.30
79705;BME280;69940;53.120;8.764;2023-06-19T04:29:09;101013.00;;;22.75;50.52
79705;BME280;69940;53.120;8.764;2023-06-19T04:31:41;101013.00;;;22.73;50.91
79705;BME280;69940;53.120;8.764;2023-06-19T04:34:09;101013.00;;;22.72;50.82
79705;BME280;69940;53.120;8.764;2023-06-19T04:36:39;101012.00;;;22.71;50.63
79705;BME280;69940;53.120;8.764;2023-06-19T04:39:10;101013.00;;;22.70;50.71
79705;BME280;69940;53.120;8.764;2023-06-19T04:41:39;101014.00;;;22.69;50.66
79705;BME280;69940;53.120;8.764;2023-06-19T04:44:09;101014.00;;;22.69;50.69
79705;BME280;69940;53.120;8.764;2023-06-19T04:46:40;101014.00;;;22.69;50.67
79705;BME280;69940;53.120;8.764;2023-06-19T04:49:10;101013.00;;;22.70;50.54
79705;BME280;69940;53.120;8.764;2023-06-19T04:51:40;101013.00;;;22.72;50.54
79705;BME280;69940;53.120;8.764;2023-06-19T04:54:09;101014.00;;;22.73;50.54
79705;BME280;69940;53.120;8.764;2023-06-19T04:56:39;101013.00;;;22.75;50.56
79705;BME280;69940;53.120;8.764;2023-06-19T04:59:09;101013.00;;;22.75;51.02
79705;BME280;69940;53.120;8.764;2023-06-19T05:01:41;101013.00;;;22.75;51.22
79705;BME280;69940;53.120;8.764;2023-06-19T05:04:09;101013.00;;;22.74;51.30
79705;BME280;69940;53.120;8.764;2023-06-19T05:06:39;101013.00;;;22.74;51.48
79705;BME280;69940;53.120;8.764;2023-06-19T05:09:09;101012.00;;;22.74;51.32
79705;BME280;69940;53.120;8.764;2023-06-19T05:11:39;101012.00;;;22.74;51.19
79705;BME280;69940;53.120;8.764;2023-06-19T05:14:09;101013.00;;;22.74;51.39
79705;BME280;69940;53.120;8.764;2023-06-19T05:16:39;101013.00;;;22.75;51.45
79705;BME280;69940;53.120;8.764;2023-06-19T05:19:09;101014.00;;;22.77;51.08
79705;BME280;69940;53.120;8.764;2023-06-19T05:21:39;101016.00;;;22.79;50.91
79705;BME280;69940;53.120;8.764;2023-06-19T05:24:09;101018.00;;;22.81;50.91
79705;BME280;69940;53.120;8.764;2023-06-19T05:26:39;101020.00;;;22.83;50.95
79705;BME280;69940;53.120;8.764;2023-06-19T05:29:09;101020.00;;;22.85;51.13
79705;BME280;69940;53.120;8.764;2023-06-19T05:31:38;101020.00;;;22.87;51.24
79705;BME280;69940;53.120;8.764;2023-06-19T05:34:09;101020.00;;;22.89;51.10
79705;BME280;69940;53.120;8.764;2023-06-19T05:36:39;101021.00;;;22.91;50.68
79705;BME280;69940;53.120;8.764;2023-06-19T05:39:11;101020.00;;;22.93;50.80
79705;BME280;69940;53.120;8.764;2023-06-19T05:41:39;101020.00;;;22.95;51.00
79705;BME280;69940;53.120;8.764;2023-06-19T05:44:09;101021.00;;;22.98;51.05
79705;BME280;69940;53.120;8.764;2023-06-19T05:46:39;101024.00;;;23.00;51.10
79705;BME280;69940;53.120;8.764;2023-06-19T05:49:09;101027.00;;;23.03;50.44
79705;BME280;69940;53.120;8.764;2023-06-19T05:51:39;101030.00;;;23.06;50.07
79705;BME280;69940;53.120;8.764;2023-06-19T05:54:10;101032.00;;;23.08;50.27
79705;BME280;69940;53.120;8.764;2023-06-19T05:56:40;101034.00;;;23.11;50.42
79705;BME280;69940;53.120;8.764;2023-06-19T05:59:09;101036.00;;;23.13;50.53
79705;BME280;69940;53.120;8.764;2023-06-19T06:01:39;101037.00;;;23.15;50.59
79705;BME280;69940;53.120;8.764;2023-06-19T06:04:09;101037.00;;;23.17;50.57
79705;BME280;69940;53.120;8.764;2023-06-19T06:06:39;101039.00;;;23.19;50.69
79705;BME280;69940;53.120;8.764;2023-06-19T06:09:13;101041.00;;;23.21;50.59
79705;BME280;69940;53.120;8.764;2023-06-19T06:11:39;101041.00;;;23.23;50.61
79705;BME280;69940;53.120;8.764;2023-06-19T06:14:08;101044.00;;;23.25;50.71
79705;BME280;69940;53.120;8.764;2023-06-19T06:16:39;101046.00;;;23.27;50.94
79705;BME280;69940;53.120;8.764;2023-06-19T06:19:09;101048.00;;;23.28;50.66
79705;BME280;69940;53.120;8.764;2023-06-19T06:21:39;101048.00;;;23.30;50.85
79705;BME280;69940;53.120;8.764;2023-06-19T06:24:09;101049.00;;;23.30;51.07
79705;BME280;69940;53.120;8.764;2023-06-19T06:26:39;101051.00;;;23.31;51.25
79705;BME280;69940;53.120;8.764;2023-06-19T06:29:09;101053.00;;;23.34;51.09
79705;BME280;69940;53.120;8.764;2023-06-19T06:31:40;101056.00;;;23.39;50.84
79705;BME280;69940;53.120;8.764;2023-06-19T06:34:09;101059.00;;;23.45;50.38
79705;BME280;69940;53.120;8.764;2023-06-19T06:36:39;101061.00;;;23.51;50.08
79705;BME280;69940;53.120;8.764;2023-06-19T06:39:09;101063.00;;;23.57;49.96
79705;BME280;69940;53.120;8.764;2023-06-19T06:41:39;101066.00;;;23.64;49.74
79705;BME280;69940;53.120;8.764;2023-06-19T06:44:09;101068.00;;;23.70;49.77
79705;BME280;69940;53.120;8.764;2023-06-19T06:46:39;101071.00;;;23.75;49.65
79705;BME280;69940;53.120;8.764;2023-06-19T06:49:09;101076.00;;;23.80;49.86
79705;BME280;69940;53.120;8.764;2023-06-19T06:51:39;101079.00;;;23.85;50.06
79705;BME280;69940;53.120;8.764;2023-06-19T06:54:09;101081.00;;;23.88;50.10
79705;BME280;69940;53.120;8.764;2023-06-19T06:56:39;101083.00;;;23.91;50.34
79705;BME280;69940;53.120;8.764;2023-06-19T06:59:09;101087.00;;;23.95;50.50
79705;BME280;69940;53.120;8.764;2023-06-19T07:01:39;101089.00;;;23.98;50.47
79705;BME280;69940;53.120;8.764;2023-06-19T07:04:09;101090.00;;;24.01;50.50
79705;BME280;69940;53.120;8.764;2023-06-19T07:06:39;101092.00;;;24.04;50.68
79705;BME280;69940;53.120;8.764;2023-06-19T07:09:09;101093.00;;;24.06;50.85
79705;BME280;69940;53.120;8.764;2023-06-19T07:11:39;101094.00;;;24.09;50.96
79705;BME280;69940;53.120;8.764;2023-06-19T07:14:09;101096.00;;;24.12;51.11
79705;BME280;69940;53.120;8.764;2023-06-19T07:16:39;101098.00;;;24.15;51.01
79705;BME280;69940;53.120;8.764;2023-06-19T07:19:09;101099.00;;;24.18;51.24
79705;BME280;69940;53.120;8.764;2023-06-19T07:21:39;101100.00;;;24.19;51.47
79705;BME280;69940;53.120;8.764;2023-06-19T07:24:09;101099.00;;;24.20;51.58
79705;BME280;69940;53.120;8.764;2023-06-19T07:26:39;101098.00;;;24.19;51.78
79705;BME280;69940;53.120;8.764;2023-06-19T07:29:09;101097.00;;;24.19;51.94
79705;BME280;69940;53.120;8.764;2023-06-19T07:31:39;101096.00;;;24.20;52.05
79705;BME280;69940;53.120;8.764;2023-06-19T07:34:09;101096.00;;;24.23;51.89
79705;BME280;69940;53.120;8.764;2023-06-19T07:36:39;101095.00;;;24.25;52.07
79705;BME280;69940;53.120;8.764;2023-06-19T07:39:09;101094.00;;;24.27;51.99
79705;BME280;69940;53.120;8.764;2023-06-19T07:41:39;101094.00;;;24.33;52.06
79705;BME280;69940;53.120;8.764;2023-06-19T07:44:09;101094.00;;;24.40;51.80
79705;BME280;69940;53.120;8.764;2023-06-19T07:46:39;101095.00;;;24.50;51.98
79705;BME280;69940;53.120;8.764;2023-06-19T07:49:09;101094.00;;;24.59;51.63
79705;BME280;69940;53.120;8.764;2023-06-19T07:51:39;101092.00;;;24.67;51.51
79705;BME280;69940;53.120;8.764;2023-06-19T07:54:09;101091.00;;;24.75;51.71
79705;BME280;69940;53.120;8.764;2023-06-19T07:56:41;101091.00;;;24.81;51.74
79705;BME280;69940;53.120;8.764;2023-06-19T07:59:09;101089.00;;;24.86;51.83
79705;BME280;69940;53.120;8.764;2023-06-19T08:01:39;101088.00;;;24.91;51.97
79705;BME280;69940;53.120;8.764;2023-06-19T08:04:09;101087.00;;;24.95;52.03
79705;BME280;69940;53.120;8.764;2023-06-19T08:06:39;101087.00;;;24.98;52.21
79705;BME280;69940;53.120;8.764;2023-06-19T08:16:19;101096.00;;;26.42;52.56
79705;BME280;69940;53.120;8.764;2023-06-19T08:18:48;101096.00;;;26.12;52.54
79705;BME280;69940;53.120;8.764;2023-06-19T08:21:17;101097.00;;;25.91;52.52
79705;BME280;69940;53.120;8.764;2023-06-19T08:23:48;101097.00;;;25.76;52.51
79705;BME280;69940;53.120;8.764;2023-06-19T08:26:18;101099.00;;;25.64;52.50
79705;BME280;69940;53.120;8.764;2023-06-19T08:28:48;101101.00;;;25.55;52.41
79705;BME280;69940;53.120;8.764;2023-06-19T08:31:17;101102.00;;;25.51;52.27
79705;BME280;69940;53.120;8.764;2023-06-19T08:33:49;101105.00;;;25.49;52.34
79705;BME280;69940;53.120;8.764;2023-06-19T08:36:17;101107.00;;;25.48;52.03
79705;BME280;69940;53.120;8.764;2023-06-19T08:38:51;101108.00;;;25.49;51.95
79705;BME280;69940;53.120;8.764;2023-06-19T08:41:19;101108.00;;;25.50;51.95
79705;BME280;69940;53.120;8.764;2023-06-19T08:43:48;101110.00;;;25.52;52.06
79705;BME280;69940;53.120;8.764;2023-06-19T08:46:20;101109.00;;;25.53;52.24
79705;BME280;69940;53.120;8.764;2023-06-19T08:48:47;101110.00;;;25.55;52.39
79705;BME280;69940;53.120;8.764;2023-06-19T08:51:18;101110.00;;;25.58;52.40
79705;BME280;69940;53.120;8.764;2023-06-19T08:53:55;101111.00;;;25.61;52.41
79705;BME280;69940;53.120;8.764;2023-06-19T08:56:17;101111.00;;;25.62;52.43
79705;BME280;69940;53.120;8.764;2023-06-19T08:58:47;101111.00;;;25.62;52.58
79705;BME280;69940;53.120;8.764;2023-06-19T09:01:18;101111.00;;;25.62;52.77
79705;BME280;69940;53.120;8.764;2023-06-19T09:03:53;101114.00;;;25.61;52.73
79705;BME280;69940;53.120;8.764;2023-06-19T09:06:18;101114.00;;;25.62;52.69
79705;BME280;69940;53.120;8.764;2023-06-19T09:08:59;101114.00;;;25.63;52.68
79705;BME280;69940;53.120;8.764;2023-06-19T09:11:18;101114.00;;;25.67;52.50
79705;BME280;69940;53.120;8.764;2023-06-19T09:13:58;101116.00;;;25.73;52.02
79705;BME280;69940;53.120;8.764;2023-06-19T09:16:17;101119.00;;;25.80;51.81
79705;BME280;69940;53.120;8.764;2023-06-19T09:18:48;101121.00;;;25.84;51.71
79705;BME280;69940;53.120;8.764;2023-06-19T09:21:21;101123.00;;;25.86;51.59
79705;BME280;69940;53.120;8.764;2023-06-19T09:23:48;101126.00;;;25.87;51.58
79705;BME280;69940;53.120;8.764;2023-06-19T09:26:20;101128.00;;;25.87;51.76
79705;BME280;69940;53.120;8.764;2023-06-19T09:28:50;101129.00;;;25.87;51.80
79705;BME280;69940;53.120;8.764;2023-06-19T09:31:18;101129.00;;;25.87;51.89
79705;BME280;69940;53.120;8.764;2023-06-19T09:33:47;101130.00;;;25.86;51.89
79705;BME280;69940;53.120;8.764;2023-06-19T09:36:17;101130.00;;;25.84;52.08
79705;BME280;69940;53.120;8.764;2023-06-19T09:38:48;101131.00;;;25.82;52.38
79705;BME280;69940;53.120;8.764;2023-06-19T09:41:19;101130.00;;;25.81;52.26
79705;BME280;69940;53.120;8.764;2023-06-19T09:43:49;101130.00;;;25.82;51.96
79705;BME280;69940;53.120;8.764;2023-06-19T09:46:19;101132.00;;;25.85;51.80
79705;BME280;69940;53.120;8.764;2023-06-19T09:48:48;101132.00;;;25.90;51.70
79705;BME280;69940;53.120;8.764;2023-06-19T09:51:19;101133.00;;;25.97;51.46
79705;BME280;69940;53.120;8.764;2023-06-19T09:53:49;101133.00;;;26.03;51.34
79705;BME280;69940;53.120;8.764;2023-06-19T09:56:22;101132.00;;;26.08;51.22
79705;BME280;69940;53.120;8.764;2023-06-19T09:58:50;101134.00;;;26.14;51.28
79705;BME280;69940;53.120;8.764;2023-06-19T10:01:19;101136.00;;;26.21;51.38
79705;BME280;69940;53.120;8.764;2023-06-19T10:03:48;101139.00;;;26.26;51.00
79705;BME280;69940;53.120;8.764;2023-06-19T10:06:18;101141.00;;;26.29;51.24
79705;BME280;69940;53.120;8.764;2023-06-19T10:08:50;101145.00;;;26.29;51.51
79705;BME280;69940;53.120;8.764;2023-06-19T10:11:17;101149.00;;;26.28;51.89
79705;BME280;69940;53.120;8.764;2023-06-19T10:13:48;101154.00;;;26.28;51.93
79705;BME280;69940;53.120;8.764;2023-06-19T10:16:22;101158.00;;;26.29;52.21
79705;BME280;69940;53.120;8.764;2023-06-19T10:18:48;101161.00;;;26.32;51.71
79705;BME280;69940;53.120;8.764;2023-06-19T10:21:19;101163.00;;;26.36;51.83
79705;BME280;69940;53.120;8.764;2023-06-19T10:23:57;101165.00;;;26.38;52.20
79705;BME280;69940;53.120;8.764;2023-06-19T10:26:18;101168.00;;;26.38;52.50
79705;BME280;69940;53.120;8.764;2023-06-19T10:28:48;101171.00;;;26.36;52.69
79705;BME280;69940;53.120;8.764;2023-06-19T10:31:19;101175.00;;;26.34;53.01
79705;BME280;69940;53.120;8.764;2023-06-19T10:33:47;101177.00;;;26.34;52.97
79705;BME280;69940;53.120;8.764;2023-06-19T10:36:22;101181.00;;;26.36;52.56
79705;BME280;69940;53.120;8.764;2023-06-19T10:38:48;101182.00;;;26.42;52.59
79705;BME280;69940;53.120;8.764;2023-06-19T10:41:19;101185.00;;;26.47;52.73
79705;BME280;69940;53.120;8.764;2023-06-19T10:43:58;101189.00;;;26.50;52.90
79705;BME280;69940;53.120;8.764;2023-06-19T10:46:18;101191.00;;;26.53;52.90
79705;BME280;69940;53.120;8.764;2023-06-19T10:48:47;101194.00;;;26.55;52.63
79705;BME280;69940;53.120;8.764;2023-06-19T10:51:18;101195.00;;;26.56;52.65
79705;BME280;69940;53.120;8.764;2023-06-19T10:53:47;101196.00;;;26.57;52.70
79705;BME280;69940;53.120;8.764;2023-06-19T10:56:20;101196.00;;;26.57;52.64
79705;BME280;69940;53.120;8.764;2023-06-19T10:58:47;101197.00;;;26.55;52.86
79705;BME280;69940;53.120;8.764;2023-06-19T11:01:18;101197.00;;;26.54;52.80
79705;BME280;69940;53.120;8.764;2023-06-19T11:03:47;101197.00;;;26.54;52.79
79705;BME280;69940;53.120;8.764;2023-06-19T11:06:20;101198.00;;;26.54;52.65
79705;BME280;69940;53.120;8.764;2023-06-19T11:08:51;101199.00;;;26.53;52.29
79705;BME280;69940;53.120;8.764;2023-06-19T11:11:17;101199.00;;;26.51;52.21
79705;BME280;69940;53.120;8.764;2023-06-19T11:13:48;101202.00;;;26.49;51.94
79705;BME280;69940;53.120;8.764;2023-06-19T11:16:18;101204.00;;;26.49;52.04
79705;BME280;69940;53.120;8.764;2023-06-19T11:18:47;101207.00;;;26.51;51.70
79705;BME280;69940;53.120;8.764;2023-06-19T11:21:17;101208.00;;;26.53;51.46
79705;BME280;69940;53.120;8.764;2023-06-19T11:23:47;101211.00;;;26.55;51.42
79705;BME280;69940;53.120;8.764;2023-06-19T11:26:18;101211.00;;;26.56;51.14
79705;BME280;69940;53.120;8.764;2023-06-19T11:28:48;101212.00;;;26.56;51.29
79705;BME280;69940;53.120;8.764;2023-06-19T11:31:25;101213.00;;;26.57;51.12
79705;BME280;69940;53.120;8.764;2023-06-19T11:33:56;101215.00;;;26.55;51.40
79705;BME280;69940;53.120;8.764;2023-06-19T11:36:17;101215.00;;;26.53;51.62
79705;BME280;69940;53.120;8.764;2023-06-19T11:38:48;101218.00;;;26.50;51.64
79705;BME280;69940;53.120;8.764;2023-06-19T11:41:28;101221.00;;;26.47;51.87
79705;BME280;69940;53.120;8.764;2023-06-19T11:43:48;101223.00;;;26.44;52.11
79705;BME280;69940;53.120;8.764;2023-06-19T11:46:31;101224.00;;;26.41;52.39
79705;BME280;69940;53.120;8.764;2023-06-19T11:48:47;101227.00;;;26.36;52.75
79705;BME280;69940;53.120;8.764;2023-06-19T11:51:17;101229.00;;;26.33;53.00
79705;BME280;69940;53.120;8.764;2023-06-19T11:53:48;101231.00;;;26.31;53.09
79705;BME280;69940;53.120;8.764;2023-06-19T11:56:17;101233.00;;;26.28;53.22
79705;BME280;69940;53.120;8.764;2023-06-19T11:58:47;101236.00;;;26.26;53.44
79705;BME280;69940;53.120;8.764;2023-06-19T12:01:18;101237.00;;;26.24;53.47
79705;BME280;69940;53.120;8.764;2023-06-19T12:03:48;101242.00;;;26.21;53.32
79705;BME280;69940;53.120;8.764;2023-06-19T12:06:18;101248.00;;;26.18;53.24
79705;BME280;69940;53.120;8.764;2023-06-19T12:08:47;101251.00;;;26.15;53.15
79705;BME280;69940;53.120;8.764;2023-06-19T12:11:17;101253.00;;;26.13;53.06
79705;BME280;69940;53.120;8.764;2023-06-19T12:13:48;101257.00;;;26.13;53.12
79705;BME280;69940;53.120;8.764;2023-06-19T12:16:17;101260.00;;;26.15;52.88
79705;BME280;69940;53.120;8.764;2023-06-19T12:18:48;101264.00;;;26.17;51.92
79705;BME280;69940;53.120;8.764;2023-06-19T12:21:17;101266.00;;;26.17;51.76
79705;BME280;69940;53.120;8.764;2023-06-19T12:23:48;101268.00;;;26.15;52.07
79705;BME280;69940;53.120;8.764;2023-06-19T12:26:19;101270.00;;;26.13;52.36
79705;BME280;69940;53.120;8.764;2023-06-19T12:28:47;101271.00;;;26.08;52.77
79705;BME280;69940;53.120;8.764;2023-06-19T12:31:17;101273.00;;;26.04;52.93
79705;BME280;69940;53.120;8.764;2023-06-19T12:33:49;101274.00;;;26.00;53.33
79705;BME280;69940;53.120;8.764;2023-06-19T12:36:17;101275.00;;;25.96;53.46
79705;BME280;69940;53.120;8.764;2023-06-19T12:38:49;101275.00;;;25.93;53.68
79705;BME280;69940;53.120;8.764;2023-06-19T12:41:17;101275.00;;;25.88;53.91
79705;BME280;69940;53.120;8.764;2023-06-19T12:43:47;101275.00;;;25.84;54.20
79705;BME280;69940;53.120;8.764;2023-06-19T12:46:17;101274.00;;;25.81;54.13
79705;BME280;69940;53.120;8.764;2023-06-19T12:48:51;101275.00;;;25.79;54.15
79705;BME280;69940;53.120;8.764;2023-06-19T12:51:18;101275.00;;;25.79;54.02
79705;BME280;69940;53.120;8.764;2023-06-19T12:53:48;101276.00;;;25.80;54.12
79705;BME280;69940;53.120;8.764;2023-06-19T12:56:18;101275.00;;;25.82;53.93
79705;BME280;69940;53.120;8.764;2023-06-19T12:58:47;101276.00;;;25.84;53.74
79705;BME280;69940;53.120;8.764;2023-06-19T13:01:18;101276.00;;;25.86;53.76
79705;BME280;69940;53.120;8.764;2023-06-19T13:03:47;101277.00;;;25.87;53.99
79705;BME280;69940;53.120;8.764;2023-06-19T13:06:20;101277.00;;;25.87;53.90
79705;BME280;69940;53.120;8.764;2023-06-19T13:08:47;101277.00;;;25.87;53.89
79705;BME280;69940;53.120;8.764;2023-06-19T13:11:18;101276.00;;;25.86;53.70